Port Jefferson, New York
Current Conditions -  °F | °C
As of 4:56 PM on Friday 24 Oct 2014 (Local Time) from KISP Reporting Station
Broken Clouds Broken Clouds  
Wind Chill: 56°   Ceiling: 3400
Heat Index: 56°   Visibility: 10mi
Dew Point: 45°   Wind: 14mph
Humidity: 67%   Direction: 330°NNW
Pressure: 29.76"   Gusts: NA
Location:  40.95°N, 73.07°W
Report Text: KISP 242056Z 33012KT 10SM BKN034 BKN042 13/07 A2976 RMK AO2 SLP076 T01330072 51006
Loading
Personal Weather Stations






























Interactive Weather Map
Tropical Storm Tracking
New forecast layout! Learn more

10-Day Weather Forecast

Advertisements
Track Severe Weather on mobile